Time;durP1;ratioP1;P1;durP2;ratioP2;P2;SDS_P1;SDS_P2;PMS_P1;PMS_P2;Temp;Humidity;BMP_temperature;BMP_pressure;BME280_temperature;BME280_humidity;BME280_pressure;Samples;Min_cycle;Max_cycle;Signal;HPM_P1;HPM_P2
2021/09/06 00:00:24;;;;;;;;;;;;;;;18.89;64.17;100983.41;4996807;28;19918;-74
2021/09/06 00:02:49;;;;;;;;;;;;;;;18.89;64.48;100981.56;4997914;28;19917;-74
2021/09/06 00:05:14;;;;;;;;;;;;;;;18.91;64.17;100980.56;4996898;28;19949;-74
2021/09/06 00:07:41;;;;;;;;;;;;;;;19.01;63.61;100975.66;4996856;28;20262;-75
2021/09/06 00:10:25;;;;;;;;;;;;;;;19.02;63.63;100985.34;4997673;28;19917;-75
2021/09/06 00:12:50;;;;;;;;;;;;;;;19.02;63.78;100977.31;4997576;28;19925;-75
2021/09/06 00:15:16;;;;;;;9.67;5.73;;;;;;;19.03;63.68;100981.66;4979824;28;19925;-74
2021/09/06 00:17:41;;;;;;;8.75;6.07;;;;;;;19.02;64.02;100978.16;4997830;28;20053;-74
2021/09/06 00:20:07;;;;;;;9.27;5.68;;;;;;;18.94;64.19;100988.19;4996812;28;20061;-75
2021/09/06 00:22:32;;;;;;;9.80;6.03;;;;;;;18.89;64.56;100986.94;4996995;28;20093;-75
2021/09/06 00:24:58;;;;;;;8.75;5.63;;;;;;;18.86;64.44;100981.97;4995831;28;20046;-74
2021/09/06 00:27:23;;;;;;;7.72;5.82;;;;;;;18.91;64.50;100986.75;4995666;28;20026;-74
2021/09/06 00:29:48;;;;;;;7.05;5.20;;;;;;;18.91;64.57;100991.28;4996007;28;20042;-74
2021/09/06 00:32:14;;;;;;;7.72;5.82;;;;;;;18.76;65.00;100985.97;5006562;22;20051;-73
2021/09/06 00:34:39;;;;;;;8.25;5.78;;;;;;;18.68;65.53;100990.44;4974948;28;20042;-73
2021/09/06 00:37:04;;;;;;;8.57;6.07;;;;;;;18.67;65.33;100990.66;4994834;28;20026;-73
2021/09/06 00:39:29;;;;;;;7.00;5.35;;;;;;;18.71;65.38;100994.59;5000175;28;20058;-73
2021/09/06 00:41:55;;;;;;;8.07;5.80;;;;;;;18.73;65.08;100995.22;4998694;28;20088;-73
2021/09/06 00:44:20;;;;;;;6.70;5.47;;;;;;;18.64;67.05;100988.38;4993601;28;21489;-73
2021/09/06 00:46:47;;;;;;;7.05;5.30;;;;;;;18.63;65.28;101000.91;4979109;28;20213;-73
2021/09/06 00:49:16;;;;;;;7.40;5.70;;;;;;;18.68;65.31;100997.66;4975364;28;20113;-73
2021/09/06 00:51:41;;;;;;;8.48;5.75;;;;;;;18.77;65.12;100996.53;4994551;28;20121;-73
2021/09/06 00:54:07;;;;;;;9.10;6.28;;;;;;;18.85;64.71;100999.06;4982309;28;20044;-73
2021/09/06 00:56:32;;;;;;;9.48;6.18;;;;;;;18.86;64.64;101002.56;4996602;28;20036;-73
2021/09/06 00:58:58;;;;;;;9.57;5.80;;;;;;;18.88;64.67;101004.03;4976505;28;20038;-74
2021/09/06 01:01:23;;;;;;;6.97;5.55;;;;;;;19.01;64.12;101005.16;4981852;28;20077;-73
2021/09/06 01:03:48;;;;;;;7.65;5.72;;;;;;;19.04;64.10;101002.94;4999205;28;20030;-73
2021/09/06 01:06:14;;;;;;;8.40;5.93;;;;;;;19.12;63.46;101009.16;4996687;28;20046;-74
2021/09/06 01:08:39;;;;;;;9.63;6.38;;;;;;;19.16;63.66;101002.34;4979045;28;20518;-73
2021/09/06 01:11:04;;;;;;;7.30;5.68;;;;;;;19.18;63.36;100997.63;4991614;28;20034;-74
2021/09/06 01:13:30;;;;;;;8.32;6.20;;;;;;;19.22;63.04;101005.09;4977733;28;20041;-73
2021/09/06 01:15:55;;;;;;;8.68;6.07;;;;;;;19.19;63.32;100994.75;4975600;28;20034;-73
2021/09/06 01:18:21;;;;;;;10.82;6.05;;;;;;;19.16;63.52;100999.69;4998656;28;20042;-74
2021/09/06 01:20:46;;;;;;;7.97;5.95;;;;;;;19.08;63.62;100993.44;4998130;28;20057;-75
2021/09/06 01:23:11;;;;;;;7.63;5.85;;;;;;;19.08;63.50;101001.47;4992002;28;20371;-75
2021/09/06 01:25:37;;;;;;;9.07;5.63;;;;;;;19.04;63.95;101002.06;4977580;28;20102;-75
2021/09/06 01:28:02;;;;;;;8.23;5.90;;;;;;;18.90;64.39;100995.78;4978013;28;20061;-75
2021/09/06 01:30:27;;;;;;;8.65;5.38;;;;;;;18.81;65.15;101007.69;4980435;28;20030;-75
2021/09/06 01:32:54;;;;;;;7.03;5.75;;;;;;;18.66;65.61;101010.41;4992216;28;20117;-75
2021/09/06 01:35:19;;;;;;;6.97;5.40;;;;;;;18.51;65.85;101023.06;4974224;28;20137;-75
2021/09/06 01:37:44;;;;;;;7.55;5.10;;;;;;;18.40;66.19;101021.69;4991144;28;20215;-74
2021/09/06 01:40:10;;;;;;;5.10;4.18;;;;;;;18.28;66.82;101021.38;4990941;28;20088;-74
2021/09/06 01:42:36;;;;;;;6.28;4.97;;;;;;;18.16;67.73;101029.09;4997560;28;20040;-74
2021/09/06 01:45:03;;;;;;;6.45;4.93;;;;;;;18.12;66.67;101027.00;4999364;28;20753;-74
2021/09/06 01:47:29;;;;;;;6.05;4.75;;;;;;;18.01;66.93;101022.94;4991699;28;20058;-74
2021/09/06 01:49:54;;;;;;;5.75;4.43;;;;;;;17.97;66.84;101030.53;4997791;28;20057;-74
2021/09/06 01:52:19;;;;;;;6.18;4.82;;;;;;;17.89;67.33;101035.16;4991275;28;20038;-74
2021/09/06 01:54:45;;;;;;;6.15;4.65;;;;;;;17.82;68.04;101032.41;4997795;28;20069;-75
2021/09/06 01:57:10;;;;;;;5.93;4.60;;;;;;;17.70;68.73;101026.66;4991756;28;20038;-74
2021/09/06 01:59:35;;;;;;;6.07;4.70;;;;;;;17.58;69.80;101034.31;4980026;28;20506;-74
2021/09/06 02:02:01;;;;;;;8.57;5.47;;;;;;;17.44;71.63;101037.00;4974907;28;20042;-74
2021/09/06 02:04:26;;;;;;;7.40;4.80;;;;;;;17.37;70.57;101042.25;4995918;28;20069;-74
2021/09/06 02:06:51;;;;;;;7.75;5.47;;;;;;;17.25;72.46;101033.84;4994003;28;20121;-75
2021/09/06 02:09:17;;;;;;;7.30;5.25;;;;;;;17.18;72.02;101040.94;4993249;28;20042;-75
2021/09/06 02:11:42;;;;;;;6.68;5.35;;;;;;;17.08;71.33;101037.72;4973810;28;20110;-75
2021/09/06 02:14:07;;;;;;;6.70;5.20;;;;;;;17.01;71.54;101037.59;4994864;28;20045;-75
2021/09/06 02:16:33;;;;;;;6.57;4.88;;;;;;;16.99;72.61;101031.59;4996368;28;20042;-75
2021/09/06 02:18:58;;;;;;;6.70;4.95;;;;;;;16.91;74.72;101029.84;4994709;28;20085;-75
2021/09/06 02:21:24;;;;;;;7.55;5.85;;;;;;;16.87;74.25;101025.88;4995304;28;20049;-75
2021/09/06 02:23:49;;;;;;;7.97;5.63;;;;;;;16.83;76.19;101031.75;4976880;28;20069;-75
2021/09/06 02:26:14;;;;;;;7.35;5.93;;;;;;;16.81;75.30;101029.28;4974179;28;20166;-75
2021/09/06 02:28:40;;;;;;;8.10;6.03;;;;;;;16.75;75.55;101033.47;4973644;28;20042;-75
2021/09/06 02:31:05;;;;;;;7.95;5.65;;;;;;;16.71;75.28;101031.34;4994474;28;20038;-75
2021/09/06 02:33:30;;;;;;;7.18;5.55;;;;;;;16.66;74.63;101028.38;4991743;28;20039;-74
2021/09/06 02:35:56;;;;;;;7.18;5.90;;;;;;;16.62;75.41;101025.22;4974577;28;20533;-75
2021/09/06 02:38:21;;;;;;;7.20;5.72;;;;;;;16.59;77.24;101022.94;4979184;28;20081;-76
2021/09/06 02:40:46;;;;;;;9.68;6.22;;;;;;;16.60;74.77;101024.59;4977513;28;20035;-75
2021/09/06 02:43:12;;;;;;;9.50;6.65;;;;;;;16.52;76.85;101022.00;4974464;28;20050;-76
2021/09/06 02:45:37;;;;;;;8.80;6.30;;;;;;;16.51;76.51;101026.47;4996422;28;20092;-75
2021/09/06 02:48:02;;;;;;;8.38;6.20;;;;;;;16.44;75.90;101027.38;4976662;28;20034;-75
2021/09/06 02:50:28;;;;;;;7.00;5.63;;;;;;;16.37;77.51;101019.25;4997062;28;20042;-75
2021/09/06 02:52:53;;;;;;;7.20;5.32;;;;;;;16.35;77.00;101027.44;4991399;28;20262;-75
2021/09/06 02:55:19;;;;;;;7.25;5.57;;;;;;;16.29;76.79;101027.31;4996543;28;20042;-75
2021/09/06 02:57:45;;;;;;;7.13;5.63;;;;;;;16.21;77.29;101027.34;4990697;28;20469;-75
2021/09/06 03:00:11;;;;;;;7.03;5.75;;;;;;;16.14;75.98;101019.25;4979009;28;20053;-75
2021/09/06 03:02:36;;;;;;;7.43;5.65;;;;;;;16.04;78.13;101026.63;4990931;28;20043;-75
2021/09/06 03:05:02;;;;;;;6.55;5.47;;;;;;;16.00;77.88;101020.81;4991471;28;20033;-75
2021/09/06 03:07:27;;;;;;;7.40;5.90;;;;;;;15.96;77.69;101032.00;5000454;28;20035;-75
2021/09/06 03:09:52;;;;;;;7.80;5.82;;;;;;;15.89;78.58;101027.34;4981328;28;20524;-75
2021/09/06 03:12:18;;;;;;;7.50;5.60;;;;;;;15.84;78.08;101027.06;4994894;28;20034;-75
2021/09/06 03:14:43;;;;;;;9.45;6.13;;;;;;;15.77;78.30;101017.25;4995928;28;20282;-76
2021/09/06 03:17:08;;;;;;;7.60;5.88;;;;;;;15.70;80.53;101022.44;4993514;28;20042;-75
2021/09/06 03:19:34;;;;;;;7.95;6.15;;;;;;;15.71;79.74;101021.47;4991601;28;20643;-75
2021/09/06 03:21:59;;;;;;;6.05;5.18;;;;;;;15.68;79.03;101019.94;4978387;28;20026;-76
2021/09/06 03:24:24;;;;;;;7.82;5.95;;;;;;;15.62;78.77;101019.81;4998738;28;20462;-76
2021/09/06 03:26:50;;;;;;;8.85;6.82;;;;;;;15.55;78.72;101019.66;4996265;28;20038;-75
2021/09/06 03:29:15;;;;;;;6.60;5.35;;;;;;;15.57;80.15;101027.50;4978604;28;20034;-75
2021/09/06 03:31:41;;;;;;;6.82;5.88;;;;;;;15.50;79.60;101022.84;4980060;28;20073;-75
2021/09/06 03:34:06;;;;;;;8.52;6.55;;;;;;;15.45;80.60;101027.03;4984049;28;20455;-75
2021/09/06 03:36:32;;;;;;;8.60;6.30;;;;;;;15.39;80.78;101031.19;4981351;28;20568;-75
2021/09/06 03:38:57;;;;;;;8.45;6.80;;;;;;;15.36;79.24;101025.38;4996638;28;20069;-75
2021/09/06 03:41:23;;;;;;;7.72;5.95;;;;;;;15.37;80.92;101027.84;4982933;28;20038;-75
2021/09/06 03:43:49;;;;;;;8.10;6.38;;;;;;;15.34;81.02;101012.22;4977194;28;20062;-75
2021/09/06 03:46:15;;;;;;;7.60;6.15;;;;;;;15.35;80.13;101021.03;4996663;28;20030;-75
2021/09/06 03:48:41;;;;;;;7.55;5.85;;;;;;;15.37;78.44;101022.53;4983290;28;20125;-75
2021/09/06 03:51:06;;;;;;;7.28;5.65;;;;;;;15.39;81.90;101028.53;5000843;28;20121;-75
2021/09/06 03:53:32;;;;;;;7.90;6.32;;;;;;;15.42;82.15;101020.22;4994204;28;20072;-75
2021/09/06 03:55:57;;;;;;;9.00;7.10;;;;;;;15.53;77.99;101026.97;4976077;28;20050;-75
2021/09/06 03:58:22;;;;;;;8.60;6.63;;;;;;;15.45;80.51;101025.19;4975890;28;20590;-75
2021/09/06 04:00:47;;;;;;;10.52;7.43;;;;;;;15.38;80.50;101026.06;4996621;28;20042;-75
2021/09/06 04:03:13;;;;;;;8.75;6.25;;;;;;;15.38;79.50;101026.06;5001639;28;20046;-75
2021/09/06 04:05:38;;;;;;;9.32;6.55;;;;;;;15.35;81.91;101029.88;4999007;28;20077;-75
2021/09/06 04:08:05;;;;;;;8.73;6.40;;;;;;;15.35;81.57;101029.03;4995053;28;20073;-75
2021/09/06 04:10:31;;;;;;;8.55;6.68;;;;;;;15.24;80.21;101032.91;4998898;28;20034;-76
2021/09/06 04:12:56;;;;;;;9.45;6.68;;;;;;;15.13;80.92;101026.09;4978604;28;20454;-75
2021/09/06 04:15:22;;;;;;;8.95;6.80;;;;;;;15.06;81.15;101031.28;4996162;28;20062;-75
2021/09/06 04:17:47;;;;;;;8.82;6.82;;;;;;;15.10;82.54;101021.09;4998187;28;20037;-74
2021/09/06 04:20:12;;;;;;;8.75;6.63;;;;;;;15.16;80.32;101022.25;4978267;28;20129;-75
2021/09/06 04:22:39;;;;;;;9.57;7.30;;;;;;;15.08;81.81;101028.44;4993391;28;20026;-74
2021/09/06 04:25:06;;;;;;;10.63;7.90;;;;;;;14.97;82.71;101036.75;4980768;28;20042;-74
2021/09/06 04:27:31;;;;;;;10.25;7.43;;;;;;;14.90;82.76;101033.97;4993472;28;20049;-74
2021/09/06 04:29:57;;;;;;;8.60;6.90;;;;;;;14.87;83.51;101036.94;4993886;28;20030;-74
2021/09/06 04:32:22;;;;;;;11.57;7.85;;;;;;;14.79;82.74;101044.94;4978341;28;20458;-74
2021/09/06 04:34:47;;;;;;;9.75;7.30;;;;;;;14.74;84.88;101044.59;4999124;28;20504;-74
2021/09/06 04:37:13;;;;;;;9.95;7.82;;;;;;;14.71;84.49;101051.09;4996451;28;20413;-74
2021/09/06 04:39:38;;;;;;;9.82;7.25;;;;;;;14.72;83.14;101049.25;5003730;28;20113;-74
2021/09/06 04:42:03;;;;;;;8.10;6.57;;;;;;;14.71;82.99;101053.75;4995386;28;20041;-74
2021/09/06 04:44:29;;;;;;;8.38;6.38;;;;;;;14.78;83.48;101064.59;4995558;28;20107;-75
2021/09/06 04:46:54;;;;;;;10.63;7.95;;;;;;;14.74;84.49;101063.25;5002200;28;20093;-75
2021/09/06 04:49:19;;;;;;;11.38;7.70;;;;;;;14.72;85.55;101060.72;4993093;28;20039;-75
2021/09/06 04:51:45;;;;;;;10.13;7.80;;;;;;;14.71;84.03;101060.91;4993032;28;20030;-75
2021/09/06 04:54:10;;;;;;;11.35;8.13;;;;;;;14.62;84.62;101068.06;4973306;28;20042;-76
2021/09/06 04:56:35;;;;;;;11.13;8.20;;;;;;;14.62;84.26;101071.53;4994965;28;20495;-75
2021/09/06 04:59:01;;;;;;;9.45;7.47;;;;;;;14.60;85.18;101078.84;4999354;28;20129;-75
2021/09/06 05:01:26;;;;;;;9.35;7.25;;;;;;;14.57;85.80;101083.69;4997719;28;20038;-75
2021/09/06 05:03:51;;;;;;;10.23;7.50;;;;;;;14.57;86.42;101083.69;4997941;28;20065;-75
2021/09/06 05:06:17;;;;;;;9.30;6.43;;;;;;;14.64;85.80;101088.19;4994667;28;20030;-76
2021/09/06 05:08:42;;;;;;;8.68;6.22;;;;;;;14.77;84.51;101090.34;4974445;28;20092;-75
2021/09/06 05:11:08;;;;;;;7.15;5.80;;;;;;;14.87;84.11;101095.50;4991057;28;20084;-75
2021/09/06 05:13:33;;;;;;;8.77;6.60;;;;;;;15.04;82.22;101094.53;4982213;28;20517;-75
2021/09/06 05:15:59;;;;;;;7.88;6.20;;;;;;;15.13;82.40;101092.69;4974507;28;20081;-75
2021/09/06 05:18:24;;;;;;;8.48;6.25;;;;;;;15.21;82.27;101099.84;5001318;28;20049;-74
2021/09/06 05:20:50;;;;;;;7.63;6.07;;;;;;;15.30;81.44;101104.16;4994436;28;20030;-76
2021/09/06 05:23:15;;;;;;;7.50;5.40;;;;;;;15.39;81.17;101107.66;4990885;28;20045;-75
2021/09/06 05:25:41;;;;;;;8.00;6.07;;;;;;;15.47;79.99;101108.47;4996850;28;20050;-75
2021/09/06 05:28:06;;;;;;;6.60;5.65;;;;;;;15.48;80.88;101114.63;4972776;28;20034;-75
2021/09/06 05:30:31;;;;;;;8.40;6.53;;;;;;;15.53;81.22;101111.47;4983381;28;20398;-74
2021/09/06 05:32:57;;;;;;;8.52;6.32;;;;;;;15.56;81.23;101106.59;4975302;28;20046;-74
2021/09/06 05:35:22;;;;;;;10.85;7.40;;;;;;;15.64;80.65;101103.94;4992323;28;20042;-74
2021/09/06 05:37:47;;;;;;;9.90;6.85;;;;;;;15.79;79.92;101106.75;4992621;28;20030;-75
2021/09/06 05:40:13;;;;;;;8.85;6.60;;;;;;;15.89;80.17;101112.69;4994336;28;20069;-75
2021/09/06 05:42:38;;;;;;;8.25;6.15;;;;;;;16.14;78.99;101110.78;4996427;28;20034;-75
2021/09/06 05:45:04;;;;;;;7.70;5.53;;;;;;;16.47;77.87;101118.63;4997883;28;20104;-75
2021/09/06 05:47:29;;;;;;;6.68;4.93;;;;;;;16.76;77.41;101115.25;4979520;28;20035;-75
2021/09/06 05:49:55;;;;;;;7.47;5.72;;;;;;;16.81;77.02;101127.28;4993425;28;20518;-75
2021/09/06 05:52:21;;;;;;;8.05;5.82;;;;;;;16.91;75.93;101128.69;4993732;28;20042;-75
2021/09/06 05:54:46;;;;;;;6.97;5.40;;;;;;;17.20;76.40;101119.94;4981450;28;20462;-75
2021/09/06 05:57:11;;;;;;;6.68;5.20;;;;;;;17.48;76.36;101124.69;4991069;28;20108;-75
2021/09/06 05:59:37;;;;;;;7.00;5.10;;;;;;;17.56;75.92;101124.59;4998517;28;20061;-75
2021/09/06 06:02:02;;;;;;;7.50;5.53;;;;;;;17.93;76.45;101130.94;4991945;28;20035;-75
2021/09/06 06:04:28;;;;;;;10.23;7.25;;;;;;;18.40;75.78;101134.16;4995668;28;20042;-74
2021/09/06 06:06:53;;;;;;;10.38;7.57;;;;;;;18.80;75.27;101134.63;4992663;28;20066;-76
2021/09/06 06:09:18;;;;;;;12.30;8.60;;;;;;;19.20;72.95;101133.13;4996631;28;20038;-75
2021/09/06 06:11:44;;;;;;;10.30;8.43;;;;;;;19.43;69.82;101134.78;4992292;28;20066;-76
2021/09/06 06:14:10;;;;;;;9.95;7.32;;;;;;;19.71;70.84;101132.06;4972107;28;20062;-74
2021/09/06 06:16:35;;;;;;;9.90;6.50;;;;;;;19.96;71.31;101140.50;4973170;28;20399;-75
2021/09/06 06:19:01;;;;;;;7.32;5.57;;;;;;;20.17;67.21;101141.44;4987919;28;20529;-76
2021/09/06 06:21:26;;;;;;;6.57;5.10;;;;;;;20.53;70.97;101147.34;4972150;28;20042;-76
2021/09/06 06:23:52;;;;;;;6.63;4.85;;;;;;;21.05;68.69;101144.97;4989990;28;20062;-77
2021/09/06 06:26:17;;;;;;;5.82;4.45;;;;;;;21.65;70.22;101155.75;4976711;28;20042;-76
2021/09/06 06:28:43;;;;;;;6.35;4.85;;;;;;;22.15;65.28;101152.50;4989850;28;20062;-76
2021/09/06 06:31:08;;;;;;;6.53;4.45;;;;;;;22.58;67.38;101147.34;5006590;23;20025;-76
2021/09/06 06:33:34;;;;;;;5.88;4.28;;;;;;;22.93;65.69;101152.31;5014360;28;20136;-75
2021/09/06 06:36:00;;;;;;;7.10;5.03;;;;;;;23.26;60.81;101145.84;5014907;28;20149;-75
2021/09/06 06:38:27;;;;;;;8.73;4.82;;;;;;;23.58;58.99;101149.31;5009657;28;20037;-76
2021/09/06 06:40:53;;;;;;;6.15;4.85;;;;;;;23.67;58.64;101149.84;5015835;28;20030;-76
2021/09/06 06:43:18;;;;;;;6.28;4.78;;;;;;;23.68;57.58;101156.91;5017077;28;20141;-75
2021/09/06 06:45:43;;;;;;;6.25;4.82;;;;;;;23.81;61.10;101158.66;5015605;28;20034;-75
2021/09/06 06:48:09;;;;;;;6.00;4.40;;;;;;;24.21;61.59;101160.91;5005444;28;20027;-76
2021/09/06 06:50:34;;;;;;;5.75;4.60;;;;;;;24.38;57.26;101162.78;4996240;28;20034;-75
2021/09/06 06:52:59;;;;;;;6.38;4.72;;;;;;;24.73;57.85;101167.50;5012905;28;20038;-75
2021/09/06 06:55:26;;;;;;;6.32;4.50;;;;;;;25.17;58.05;101165.44;5015660;28;20034;-75
2021/09/06 06:57:51;;;;;;;8.75;5.68;;;;;;;25.55;52.60;101174.16;4997429;28;20042;-74
2021/09/06 07:00:16;;;;;;;6.25;4.55;;;;;;;25.54;51.47;101165.19;4996619;28;20608;-74
2021/09/06 07:02:41;;;;;;;5.60;4.32;;;;;;;25.57;53.53;101169.31;5019751;28;20034;-75
2021/09/06 07:05:08;;;;;;;4.78;3.78;;;;;;;26.01;54.94;101164.38;5001699;28;20041;-75
2021/09/06 07:07:33;;;;;;;4.88;3.70;;;;;;;26.19;53.17;101163.38;5009519;28;20442;-75
2021/09/06 07:09:59;;;;;;;6.75;4.65;;;;;;;26.71;50.56;101170.63;5015185;28;20145;-76
2021/09/06 07:12:24;;;;;;;6.47;4.35;;;;;;;26.97;51.69;101164.59;5017707;28;20041;-75
2021/09/06 07:14:50;;;;;;;6.75;5.25;;;;;;;27.30;46.12;101169.22;5023533;28;20049;-76
2021/09/06 07:17:15;;;;;;;6.03;4.43;;;;;;;26.89;47.19;101160.38;5015208;28;20067;-75
2021/09/06 07:19:41;;;;;;;6.67;4.93;;;;;;;27.11;45.89;101165.91;5000478;28;20034;-76
2021/09/06 07:22:06;;;;;;;5.18;4.20;;;;;;;26.96;47.44;101178.38;5017795;28;20308;-76
2021/09/06 07:24:31;;;;;;;6.30;4.80;;;;;;;26.48;48.11;101175.03;5003235;28;20031;-76
2021/09/06 07:26:57;;;;;;;5.55;4.68;;;;;;;26.57;48.82;101178.25;5007557;28;20033;-76
2021/09/06 07:29:22;;;;;;;6.18;4.32;;;;;;;27.02;47.03;101186.38;5009885;28;20038;-76
2021/09/06 07:31:47;;;;;;;7.80;5.20;;;;;;;27.68;45.83;101186.63;4998800;28;20041;-75
2021/09/06 07:34:13;;;;;;;6.13;4.72;;;;;;;28.12;45.33;101186.69;5009785;28;20322;-76
2021/09/06 07:36:38;;;;;;;7.03;5.57;;;;;;;28.37;43.26;101186.19;5001384;28;20510;-75
2021/09/06 07:39:03;;;;;;;6.35;4.45;;;;;;;28.36;44.80;101191.88;5000638;28;20044;-76
2021/09/06 07:41:29;;;;;;;5.80;4.47;;;;;;;28.52;43.93;101191.00;5001664;28;20086;-76
2021/09/06 07:43:54;;;;;;;6.13;4.80;;;;;;;28.58;42.04;101200.88;5018587;28;20049;-76
2021/09/06 07:46:20;;;;;;;10.05;6.00;;;;;;;29.07;39.94;101205.47;5000210;28;20084;-74
2021/09/06 07:48:45;;;;;;;7.78;5.30;;;;;;;28.74;41.63;101207.28;5018484;28;20395;-76
2021/09/06 07:51:11;;;;;;;5.30;4.22;;;;;;;28.61;42.91;101209.63;5018564;28;20034;-76
2021/09/06 07:53:36;;;;;;;6.53;4.72;;;;;;;28.84;42.77;101208.47;5018343;28;20498;-75
2021/09/06 07:56:02;;;;;;;8.15;5.80;;;;;;;29.39;41.38;101213.63;5016749;28;20036;-76
2021/09/06 07:58:27;;;;;;;7.50;5.53;;;;;;;29.06;42.32;101211.16;5016943;28;20033;-76
2021/09/06 08:00:53;;;;;;;7.07;4.95;;;;;;;29.39;42.39;101216.34;5016871;28;20034;-75
2021/09/06 08:03:19;;;;;;;6.75;5.72;;;;;;;28.97;40.24;101213.50;5015894;28;20037;-75
2021/09/06 08:05:44;;;;;;;6.28;4.65;;;;;;;29.05;41.40;101220.38;5015209;28;20030;-76
2021/09/06 08:08:10;;;;;;;7.03;5.00;;;;;;;29.55;42.52;101221.91;4995859;28;20061;-76
2021/09/06 08:10:35;;;;;;;6.88;5.07;;;;;;;29.85;39.80;101224.84;5004662;28;20030;-76
2021/09/06 08:13:00;;;;;;;6.30;4.75;;;;;;;30.54;39.69;101225.72;5017229;28;20038;-76
2021/09/06 08:15:28;;;;;;;6.10;5.07;;;;;;;31.05;38.28;101222.31;5014164;28;20049;-75
2021/09/06 08:17:53;;;;;;;5.82;4.65;;;;;;;30.88;37.48;101222.56;4998433;28;20045;-76
2021/09/06 08:20:19;;;;;;;5.10;4.30;;;;;;;31.15;38.58;101218.75;4998680;28;20031;-76
2021/09/06 08:22:44;;;;;;;5.82;3.80;;;;;;;31.24;36.11;101222.56;5015039;28;20026;-76
2021/09/06 08:25:12;;;;;;;5.53;4.38;;;;;;;31.39;37.36;101224.47;5002306;28;20042;-76
2021/09/06 08:27:39;;;;;;;5.35;4.07;;;;;;;31.76;37.67;101232.38;5017372;28;20038;-75
2021/09/06 08:30:07;;;;;;;5.32;4.25;;;;;;;32.43;36.91;101237.66;5017432;28;20107;-75
2021/09/06 08:32:32;;;;;;;4.97;4.20;;;;;;;32.61;36.10;101245.25;5015812;28;20445;-76
2021/09/06 08:34:58;;;;;;;5.85;4.15;;;;;;;32.58;36.10;101245.81;4999641;28;20022;-76
2021/09/06 08:37:23;;;;;;;6.18;4.70;;;;;;;32.98;34.46;101250.22;5003222;28;20080;-76
2021/09/06 08:39:49;;;;;;;4.47;3.53;;;;;;;33.17;35.00;101244.91;5000274;28;20034;-76
2021/09/06 08:42:15;;;;;;;4.63;3.75;;;;;;;34.04;34.41;101251.50;5016839;28;20108;-77
2021/09/06 08:44:43;;;;;;;7.30;5.43;;;;;;;34.62;31.59;101253.28;5018484;28;20117;-75
2021/09/06 08:47:09;;;;;;;5.60;4.90;;;;;;;34.77;31.60;101254.97;5018318;28;20529;-74
2021/09/06 08:49:34;;;;;;;5.95;4.72;;;;;;;34.89;31.59;101247.91;5003603;28;20030;-76
2021/09/06 08:52:00;;;;;;;4.60;3.75;;;;;;;34.96;32.29;101252.22;5016932;28;20030;-76
2021/09/06 08:54:26;;;;;;;6.05;4.30;;;;;;;35.21;31.69;101251.03;5016634;28;20526;-76
2021/09/06 08:56:51;;;;;;;6.00;3.83;;;;;;;35.17;31.13;101261.81;5016541;28;20120;-75
2021/09/06 08:59:18;;;;;;;5.53;4.00;;;;;;;35.26;32.80;101256.44;4998629;28;20042;-76
2021/09/06 09:01:45;;;;;;;7.43;4.70;;;;;;;35.16;31.88;101257.44;5000694;28;20130;-76
2021/09/06 09:04:14;;;;;;;6.55;4.32;;;;;;;35.00;29.13;101256.03;5017157;28;20050;-75
2021/09/06 09:06:39;;;;;;;5.03;4.20;;;;;;;35.30;31.82;101251.97;5017399;28;20030;-76
2021/09/06 09:09:04;;;;;;;9.40;5.82;;;;;;;35.68;28.84;101241.72;5016741;28;20038;-76
2021/09/06 09:11:30;;;;;;;6.10;4.60;;;;;;;35.49;30.13;101243.66;4999071;28;20030;-76
2021/09/06 09:13:55;;;;;;;5.43;4.72;;;;;;;35.84;30.16;101244.97;5001823;28;20284;-76
2021/09/06 09:16:20;;;;;;;7.00;4.72;;;;;;;36.10;29.89;101242.53;5003608;28;21095;-76
2021/09/06 09:18:45;;;;;;;6.07;4.22;;;;;;;36.00;30.22;101241.91;5004909;28;20034;-75
2021/09/06 09:21:12;;;;;;;6.75;5.22;;;;;;;36.28;29.25;101245.47;4998357;28;20092;-75
2021/09/06 09:23:43;;;;;;;5.25;4.10;;;;;;;35.78;30.31;101245.34;5011952;28;20049;-75
2021/09/06 09:26:10;;;;;;;6.57;4.53;;;;;;;34.88;32.34;101249.03;5006348;28;20109;-76
2021/09/06 09:28:41;;;;;;;7.22;4.70;;;;;;;34.10;32.79;101252.28;4995733;28;20114;-75
2021/09/06 09:31:09;;;;;;;5.97;4.70;;;;;;;33.08;33.62;101243.06;4996830;28;20438;-75
2021/09/06 09:33:54;;;;;;;7.22;5.18;;;;;;;33.10;34.33;101241.66;4997002;28;20046;-74
2021/09/06 09:36:31;;;;;;;6.50;4.50;;;;;;;32.04;33.36;101236.44;5009861;28;20608;-75
2021/09/06 09:39:10;;;;;;;5.82;4.38;;;;;;;31.44;36.93;101246.38;5016593;28;20037;-75
2021/09/06 09:41:36;;;;;;;7.63;5.07;;;;;;;31.31;36.79;101237.59;4995563;28;20046;-76
2021/09/06 09:44:36;;;;;;;5.20;4.18;;;;;;;31.13;37.14;101238.16;5013802;28;20048;-75
2021/09/06 09:47:03;;;;;;;9.32;5.47;;;;;;;31.21;36.12;101236.78;5015199;28;20030;-76
2021/09/06 09:49:32;;;;;;;5.82;4.45;;;;;;;30.51;37.21;101236.34;5010635;28;20037;-76
2021/09/06 09:51:57;;;;;;;6.45;5.20;;;;;;;30.44;36.94;101232.00;5014373;28;20073;-76
2021/09/06 09:54:23;;;;;;;6.07;5.05;;;;;;;30.22;37.26;101226.69;5015604;28;20045;-75
2021/09/06 09:56:49;;;;;;;6.07;4.35;;;;;;;30.01;37.75;101224.94;5016813;28;20033;-76
2021/09/06 09:59:16;;;;;;;7.07;4.63;;;;;;;29.72;39.18;101227.22;5016788;28;20105;-76
2021/09/06 10:01:46;;;;;;;6.10;4.35;;;;;;;29.60;38.36;101225.50;4996004;28;20034;-76
2021/09/06 10:04:13;;;;;;;7.18;3.95;;;;;;;29.58;38.67;101221.38;5020906;28;20034;-76
2021/09/06 10:06:41;;;;;;;7.10;4.68;;;;;;;29.30;37.83;101222.53;4995917;28;20027;-76
2021/09/06 10:09:06;;;;;;;5.35;4.25;;;;;;;29.37;37.62;101223.97;5007274;28;20038;-75
2021/09/06 10:11:40;;;;;;;5.90;4.40;;;;;;;29.63;36.39;101219.53;4997997;28;20045;-75
2021/09/06 10:14:12;;;;;;;5.22;4.30;;;;;;;29.65;36.77;101224.69;5012365;28;20095;-76
2021/09/06 10:16:38;;;;;;;6.78;4.90;;;;;;;29.09;37.85;101213.38;5010577;28;20034;-76
2021/09/06 10:19:10;;;;;;;5.18;4.43;;;;;;;28.94;38.95;101214.84;4996446;28;20038;-75
2021/09/06 10:21:46;;;;;;;6.00;4.50;;;;;;;28.82;38.49;101203.31;4996527;28;20064;-75
2021/09/06 10:24:14;;;;;;;7.82;4.88;;;;;;;28.66;38.48;101207.75;5007569;28;20030;-75
2021/09/06 10:26:40;;;;;;;6.22;4.88;;;;;;;28.47;38.39;101201.84;5015563;28;20265;-76
2021/09/06 10:29:19;;;;;;;7.82;5.38;;;;;;;28.53;37.81;101203.56;5016008;28;20101;-75
2021/09/06 10:31:57;;;;;;;6.95;5.43;;;;;;;28.13;38.65;101201.13;5016216;28;20049;-74
2021/09/06 10:34:23;;;;;;;7.78;5.47;;;;;;;28.17;39.68;101204.97;5012210;28;20034;-74
2021/09/06 10:37:03;;;;;;;6.85;5.20;;;;;;;27.88;41.92;101204.31;4999691;28;20022;-75
2021/09/06 10:39:31;;;;;;;6.88;5.30;;;;;;;27.97;41.84;101205.53;5012818;28;20034;-76
2021/09/06 10:42:07;;;;;;;6.32;4.97;;;;;;;27.83;41.07;101206.97;5001759;28;20034;-76
2021/09/06 10:44:38;;;;;;;6.50;5.05;;;;;;;27.95;40.41;101200.34;5019143;28;20030;-75
2021/09/06 10:47:10;;;;;;;6.15;4.90;;;;;;;28.03;40.30;101199.13;5019458;28;20034;-76
2021/09/06 10:49:40;;;;;;;7.20;5.25;;;;;;;28.10;40.61;101197.03;5005268;28;20142;-76
2021/09/06 10:52:07;;;;;;;7.50;5.97;;;;;;;28.26;40.34;101202.66;5000873;28;20038;-74
2021/09/06 10:54:35;;;;;;;8.68;5.55;;;;;;;28.14;39.65;101194.63;5019503;28;20498;-77
2021/09/06 10:57:00;;;;;;;6.80;5.45;;;;;;;27.62;40.54;101200.38;5009693;28;20114;-75
2021/09/06 10:59:26;;;;;;;6.30;5.30;;;;;;;27.60;40.98;101189.78;4999726;28;20044;-75
2021/09/06 11:01:55;;;;;;;5.05;4.55;;;;;;;27.44;42.12;101191.44;5002606;28;20031;-75
2021/09/06 11:04:27;;;;;;;7.47;5.35;;;;;;;27.46;41.75;101189.31;4999478;28;20042;-75
2021/09/06 11:07:00;;;;;;;7.90;5.45;;;;;;;27.62;39.43;101184.91;5008737;28;20053;-74
2021/09/06 11:09:28;;;;;;;6.68;4.35;;;;;;;27.79;40.50;101178.63;5019997;28;20529;-76
2021/09/06 11:12:02;;;;;;;6.20;4.93;;;;;;;27.88;40.86;101186.13;5018971;28;20481;-74
2021/09/06 11:14:36;;;;;;;5.93;4.15;;;;;;;27.92;38.96;101187.25;5019478;28;20092;-76
2021/09/06 11:17:02;;;;;;;5.65;4.75;;;;;;;27.93;39.69;101188.09;5001761;28;20030;-76
2021/09/06 11:19:29;;;;;;;6.00;4.40;;;;;;;28.21;38.38;101180.84;5019067;28;20061;-75
2021/09/06 11:21:58;;;;;;;5.47;4.57;;;;;;;28.03;37.90;101177.38;5009838;28;20125;-75